createdAt,value
2023-02-26T00:00:16.182Z,-0.20
2023-02-26T00:02:44.927Z,-0.20
2023-02-26T00:05:12.081Z,-0.20
2023-02-26T00:07:39.501Z,-0.20
2023-02-26T00:10:08.458Z,-0.20
2023-02-26T00:12:35.684Z,-0.20
2023-02-26T00:15:03.525Z,-0.20
2023-02-26T00:17:33.183Z,-0.20
2023-02-26T00:20:00.815Z,-0.20
2023-02-26T00:22:28.081Z,-0.30
2023-02-26T00:24:55.168Z,-0.30
2023-02-26T00:27:22.236Z,-0.30
2023-02-26T00:29:49.498Z,-0.30
2023-02-26T00:32:18.115Z,-0.30
2023-02-26T00:34:45.959Z,-0.30
2023-02-26T00:37:31.322Z,-0.30
2023-02-26T00:40:18.705Z,-0.30
2023-02-26T00:42:46.937Z,-0.30
2023-02-26T00:45:14.438Z,-0.30
2023-02-26T00:47:48.826Z,-0.30
2023-02-26T00:50:17.293Z,-0.30
2023-02-26T00:52:50.859Z,-0.30
2023-02-26T00:55:18.279Z,-0.40
2023-02-26T00:57:46.446Z,-0.40
2023-02-26T01:00:13.796Z,-0.40
2023-02-26T01:02:40.979Z,-0.40
2023-02-26T01:05:08.446Z,-0.50
2023-02-26T01:07:47.337Z,-0.50
2023-02-26T01:10:14.687Z,-0.50
2023-02-26T01:12:41.965Z,-0.50
2023-02-26T01:15:09.510Z,-0.50
2023-02-26T01:17:36.583Z,-0.50
2023-02-26T01:20:06.659Z,-0.50
2023-02-26T01:22:36.180Z,-0.50
2023-02-26T01:25:04.177Z,-0.60
2023-02-26T01:27:31.375Z,-0.60
2023-02-26T01:29:58.864Z,-0.60
2023-02-26T01:32:46.345Z,-0.60
2023-02-26T01:35:17.372Z,-0.60
2023-02-26T01:37:45.395Z,-0.60
2023-02-26T01:40:32.584Z,-0.70
2023-02-26T01:43:02.562Z,-0.60
2023-02-26T01:45:34.044Z,-0.70
2023-02-26T01:48:03.811Z,-0.60
2023-02-26T01:50:32.101Z,-0.70
2023-02-26T01:53:17.610Z,-0.70
2023-02-26T01:55:45.564Z,-0.70
2023-02-26T01:58:12.624Z,-0.70
2023-02-26T02:00:39.727Z,-0.70
2023-02-26T02:03:08.997Z,-0.70
2023-02-26T02:05:41.123Z,-0.70
2023-02-26T02:08:08.199Z,-0.70
2023-02-26T02:10:35.462Z,-0.80
2023-02-26T02:13:04.089Z,-0.80
2023-02-26T02:15:38.504Z,-0.80
2023-02-26T02:18:24.393Z,-0.80
2023-02-26T02:21:03.685Z,-0.80
2023-02-26T02:23:33.062Z,-0.80
2023-02-26T02:26:19.708Z,-0.80
2023-02-26T02:29:13.284Z,-0.80
2023-02-26T02:31:43.613Z,-0.80
2023-02-26T02:34:10.823Z,-0.80
2023-02-26T02:36:38.065Z,-0.80
2023-02-26T02:39:07.692Z,-0.80
2023-02-26T02:41:36.739Z,-0.80
2023-02-26T02:44:04.314Z,-0.80
2023-02-26T02:46:32.856Z,-0.80
2023-02-26T02:49:04.075Z,-0.80
2023-02-26T02:51:35.597Z,-0.80
2023-02-26T02:54:05.352Z,-0.80
2023-02-26T02:56:34.706Z,-0.80
2023-02-26T02:59:04.495Z,-0.80
2023-02-26T03:01:31.596Z,-0.80
2023-02-26T03:04:08.349Z,-0.90
2023-02-26T03:06:37.323Z,-0.90
2023-02-26T03:09:05.007Z,-0.90
2023-02-26T03:11:32.206Z,-1.00
2023-02-26T03:14:00.372Z,-1.00
2023-02-26T03:16:40.760Z,-1.00
2023-02-26T03:19:28.251Z,-1.00
2023-02-26T03:22:16.509Z,-1.00
2023-02-26T03:25:10.275Z,-1.10
2023-02-26T03:27:53.697Z,-1.10
2023-02-26T03:30:33.134Z,-1.10
2023-02-26T03:33:11.683Z,-1.20
2023-02-26T03:35:50.842Z,-1.20
2023-02-26T03:38:21.886Z,-1.20
2023-02-26T03:40:53.792Z,-1.20
2023-02-26T03:43:24.837Z,-1.20
2023-02-26T03:45:53.085Z,-1.20
2023-02-26T03:48:45.278Z,-1.20
2023-02-26T03:51:12.657Z,-1.20
2023-02-26T03:53:53.661Z,-1.20
2023-02-26T03:56:35.251Z,-1.30
2023-02-26T03:59:20.033Z,-1.30
2023-02-26T04:02:07.324Z,-1.30
2023-02-26T04:04:48.435Z,-1.30
2023-02-26T04:07:16.040Z,-1.30
2023-02-26T04:09:43.844Z,-1.30
2023-02-26T04:12:11.183Z,-1.30
2023-02-26T04:14:42.220Z,-1.30
2023-02-26T04:17:09.303Z,-1.40
2023-02-26T04:19:36.631Z,-1.40
2023-02-26T04:22:03.704Z,-1.40
2023-02-26T04:24:30.819Z,-1.40
2023-02-26T04:27:01.087Z,-1.40
2023-02-26T04:29:28.243Z,-1.40
2023-02-26T04:31:55.372Z,-1.40
2023-02-26T04:34:23.119Z,-1.40
2023-02-26T04:36:50.766Z,-1.40
2023-02-26T04:39:17.895Z,-1.50
2023-02-26T04:41:45.373Z,-1.50
2023-02-26T04:44:13.187Z,-1.50
2023-02-26T04:46:42.043Z,-1.50
2023-02-26T04:49:09.775Z,-1.60
2023-02-26T04:51:38.510Z,-1.50
2023-02-26T04:54:08.255Z,-1.60
2023-02-26T04:56:35.493Z,-1.60
2023-02-26T04:59:03.746Z,-1.60
2023-02-26T05:01:31.929Z,-1.60
2023-02-26T05:03:59.665Z,-1.60
2023-02-26T05:06:27.040Z,-1.60
2023-02-26T05:08:54.278Z,-1.70
2023-02-26T05:11:21.370Z,-1.60
2023-02-26T05:13:48.626Z,-1.70
2023-02-26T05:16:15.724Z,-1.70
2023-02-26T05:18:42.888Z,-1.80
2023-02-26T05:21:09.924Z,-1.90
2023-02-26T05:23:38.126Z,-1.90
2023-02-26T05:26:05.376Z,-2.00
2023-02-26T05:28:33.868Z,-2.00
2023-02-26T05:31:01.420Z,-2.00
2023-02-26T05:33:28.623Z,-2.00
2023-02-26T05:35:56.712Z,-2.00
2023-02-26T05:38:23.768Z,-2.00
2023-02-26T05:40:50.830Z,-2.10
2023-02-26T05:43:18.013Z,-2.10
2023-02-26T05:45:45.108Z,-2.10
2023-02-26T05:48:12.244Z,-2.20
2023-02-26T05:50:41.116Z,-2.20
2023-02-26T05:53:08.716Z,-2.20
2023-02-26T05:55:35.857Z,-2.20
2023-02-26T05:58:02.878Z,-2.30
2023-02-26T06:00:30.838Z,-2.30
2023-02-26T06:02:57.923Z,-2.30
2023-02-26T06:05:25.046Z,-2.40
2023-02-26T06:07:52.190Z,-2.30
2023-02-26T06:10:19.329Z,-2.40
2023-02-26T06:12:46.414Z,-2.40
2023-02-26T06:15:13.497Z,-2.40
2023-02-26T06:17:41.046Z,-2.40
2023-02-26T06:20:08.659Z,-2.40
2023-02-26T06:22:35.774Z,-2.50
2023-02-26T06:25:02.848Z,-2.50
2023-02-26T06:27:29.882Z,-2.50
2023-02-26T06:29:56.995Z,-2.50
2023-02-26T06:32:24.125Z,-2.50
2023-02-26T06:34:51.201Z,-2.50
2023-02-26T06:37:18.252Z,-2.50
2023-02-26T06:39:45.321Z,-2.50
2023-02-26T06:42:12.387Z,-2.50
2023-02-26T06:44:39.449Z,-2.50
2023-02-26T06:47:07.855Z,-2.50
2023-02-26T06:49:34.931Z,-2.40
2023-02-26T06:52:01.988Z,-2.40
2023-02-26T06:54:29.102Z,-2.40
2023-02-26T06:57:00.302Z,-2.40
2023-02-26T06:59:27.454Z,-2.40
2023-02-26T07:01:54.627Z,-2.40
2023-02-26T07:04:21.767Z,-2.50
2023-02-26T07:06:48.842Z,-2.40
2023-02-26T07:09:15.896Z,-2.40
2023-02-26T07:11:42.979Z,-2.30
2023-02-26T07:14:10.029Z,-2.30
2023-02-26T07:16:37.222Z,-2.20
2023-02-26T07:19:04.276Z,-2.10
2023-02-26T07:21:31.327Z,-2.00
2023-02-26T07:23:58.471Z,-2.00
2023-02-26T07:26:26.828Z,-1.90
2023-02-26T07:28:54.089Z,-1.90
2023-02-26T07:31:21.193Z,-1.90
2023-02-26T07:33:48.394Z,-1.80
2023-02-26T07:36:15.460Z,-1.80
2023-02-26T07:38:42.583Z,-1.80
2023-02-26T07:41:09.744Z,-1.80
2023-02-26T07:43:36.803Z,-1.80
2023-02-26T07:46:04.192Z,-1.70
2023-02-26T07:48:31.283Z,-1.70
2023-02-26T07:51:00.301Z,-1.70
2023-02-26T07:53:27.411Z,-1.60
2023-02-26T07:55:54.454Z,-1.50
2023-02-26T07:58:21.568Z,-1.40
2023-02-26T08:00:48.638Z,-1.40
2023-02-26T08:03:15.737Z,-1.40
2023-02-26T08:05:42.822Z,-1.40
2023-02-26T08:08:09.984Z,-1.40
2023-02-26T08:10:37.304Z,-1.40
2023-02-26T08:13:04.417Z,-1.40
2023-02-26T08:15:32.522Z,-1.50
2023-02-26T08:17:59.559Z,-1.50
2023-02-26T08:20:26.729Z,-1.60
2023-02-26T08:22:53.807Z,-1.60
2023-02-26T08:25:20.967Z,-1.70
2023-02-26T08:27:48.080Z,-1.90
2023-02-26T08:30:15.179Z,-1.90
2023-02-26T08:32:42.585Z,-1.90
2023-02-26T08:35:10.095Z,-1.90
2023-02-26T08:37:37.368Z,-1.90
2023-02-26T08:40:05.749Z,-1.80
2023-02-26T08:42:32.859Z,-1.80
2023-02-26T08:44:59.929Z,-1.70
2023-02-26T08:47:29.049Z,-1.70
2023-02-26T08:49:56.702Z,-1.70
2023-02-26T08:52:23.829Z,-1.60
2023-02-26T08:54:50.874Z,-1.60
2023-02-26T08:57:17.968Z,-1.60
2023-02-26T08:59:45.055Z,-1.70
2023-02-26T09:02:12.373Z,-1.70
2023-02-26T09:04:39.464Z,-1.70
2023-02-26T09:07:06.603Z,-1.70
2023-02-26T09:09:33.771Z,-1.70
2023-02-26T09:12:00.838Z,-1.70
2023-02-26T09:14:28.047Z,-1.70
2023-02-26T09:16:55.169Z,-1.60
2023-02-26T09:19:22.271Z,-1.60
2023-02-26T09:21:49.382Z,-1.50
2023-02-26T09:24:16.422Z,-1.50
2023-02-26T09:26:43.522Z,-1.50
2023-02-26T09:29:11.456Z,-1.60
2023-02-26T09:31:38.637Z,-1.60
2023-02-26T09:34:05.740Z,-1.70
2023-02-26T09:36:32.828Z,-1.60
2023-02-26T09:39:00.721Z,-1.60
2023-02-26T09:41:31.779Z,-1.60
2023-02-26T09:43:58.804Z,-1.60
2023-02-26T09:46:26.224Z,-1.50
2023-02-26T09:48:54.781Z,-1.50
2023-02-26T09:51:21.834Z,-1.50
2023-02-26T09:53:49.283Z,-1.40
2023-02-26T09:56:16.888Z,-1.40
2023-02-26T09:58:44.060Z,-1.40
2023-02-26T10:01:25.665Z,-1.40
2023-02-26T10:04:11.565Z,-1.30
2023-02-26T10:06:41.254Z,-1.20
2023-02-26T10:09:27.168Z,-1.20
2023-02-26T10:12:05.661Z,-1.20
2023-02-26T10:14:37.491Z,-1.10
2023-02-26T10:17:09.091Z,-1.10
2023-02-26T10:19:37.325Z,-1.10
2023-02-26T10:22:07.438Z,-1.10
2023-02-26T10:24:42.152Z,-1.10
2023-02-26T10:27:18.698Z,-0.90
2023-02-26T10:29:49.641Z,-0.70
2023-02-26T10:32:29.829Z,-0.50
2023-02-26T10:34:58.041Z,-0.40
2023-02-26T10:37:43.941Z,-0.40
2023-02-26T10:40:18.150Z,-0.40
2023-02-26T10:43:00.008Z,-0.40
2023-02-26T10:45:45.800Z,-0.40
2023-02-26T10:48:31.346Z,-0.40
2023-02-26T10:50:58.987Z,-0.50
2023-02-26T10:53:26.544Z,-0.50
2023-02-26T10:56:08.142Z,-0.60
2023-02-26T10:58:35.205Z,-0.70
2023-02-26T11:01:02.440Z,-0.60
2023-02-26T11:03:38.937Z,-0.60
2023-02-26T11:06:06.581Z,-0.50
2023-02-26T11:08:39.137Z,-0.40
2023-02-26T11:11:06.318Z,-0.40
2023-02-26T11:13:34.187Z,-0.30
2023-02-26T11:16:01.981Z,-0.30
2023-02-26T11:18:39.056Z,-0.40
2023-02-26T11:21:06.164Z,-0.30
2023-02-26T11:23:33.247Z,-0.30
2023-02-26T11:26:05.340Z,-0.30
2023-02-26T11:28:35.106Z,-0.40
2023-02-26T11:31:05.464Z,-0.40
2023-02-26T11:33:37.555Z,-0.40
2023-02-26T11:36:06.746Z,-0.30
2023-02-26T11:38:33.987Z,-0.20
2023-02-26T11:41:01.104Z,-0.10
2023-02-26T11:43:33.706Z,0.00
2023-02-26T11:46:01.161Z,0.10
2023-02-26T11:48:29.383Z,0.00
2023-02-26T11:50:58.363Z,-0.10
2023-02-26T11:53:25.446Z,-0.20
2023-02-26T11:55:52.849Z,-0.30
2023-02-26T11:58:21.963Z,-0.30
2023-02-26T12:00:49.957Z,-0.20
2023-02-26T12:03:18.901Z,-0.20
2023-02-26T12:05:46.003Z,-0.20
2023-02-26T12:08:38.299Z,-0.30
2023-02-26T12:11:25.957Z,-0.20
2023-02-26T12:13:58.489Z,-0.20
2023-02-26T12:16:28.517Z,-0.10
2023-02-26T12:18:55.698Z,0.10
2023-02-26T12:21:38.370Z,0.30
2023-02-26T12:24:20.720Z,0.30
2023-02-26T12:26:54.659Z,0.40
2023-02-26T12:29:24.767Z,0.40
2023-02-26T12:31:58.226Z,0.50
2023-02-26T12:34:36.378Z,0.60
2023-02-26T12:37:22.276Z,0.60
2023-02-26T12:39:50.319Z,0.70
2023-02-26T12:42:32.840Z,0.80
2023-02-26T12:45:12.120Z,0.90
2023-02-26T12:47:57.514Z,0.90
2023-02-26T12:50:24.562Z,0.90
2023-02-26T12:52:57.806Z,0.90
2023-02-26T12:55:24.883Z,1.00
2023-02-26T12:57:58.005Z,1.00
2023-02-26T13:00:40.497Z,1.10
2023-02-26T13:03:22.170Z,1.10
2023-02-26T13:05:49.213Z,1.00
2023-02-26T13:08:16.449Z,1.00
2023-02-26T13:11:02.392Z,1.00
2023-02-26T13:13:32.542Z,1.00
2023-02-26T13:16:02.682Z,0.80
2023-02-26T13:18:45.030Z,0.50
2023-02-26T13:21:18.850Z,0.30
2023-02-26T13:23:50.273Z,0.10
2023-02-26T13:26:17.474Z,-0.10
2023-02-26T13:28:50.518Z,-0.20
2023-02-26T13:31:34.729Z,-0.10
2023-02-26T13:34:04.791Z,-0.10
2023-02-26T13:36:33.568Z,0.10
2023-02-26T13:39:22.758Z,0.20
2023-02-26T13:42:01.752Z,0.40
2023-02-26T13:44:58.507Z,0.50
2023-02-26T13:47:31.111Z,0.50
2023-02-26T13:49:58.221Z,0.40
2023-02-26T13:52:26.130Z,0.30
2023-02-26T13:54:53.585Z,0.20
2023-02-26T13:57:32.861Z,0.20
2023-02-26T14:00:15.297Z,0.30
2023-02-26T14:02:46.735Z,0.40
2023-02-26T14:05:29.121Z,0.50
2023-02-26T14:07:59.232Z,0.50
2023-02-26T14:10:27.360Z,0.50
2023-02-26T14:13:13.253Z,0.50
2023-02-26T14:15:41.847Z,0.50
2023-02-26T14:18:25.669Z,0.60
2023-02-26T14:20:52.756Z,0.60
2023-02-26T14:23:23.825Z,0.70
2023-02-26T14:25:52.716Z,0.70
2023-02-26T14:28:19.738Z,0.70
2023-02-26T14:30:47.595Z,0.80
2023-02-26T14:33:15.787Z,0.80
2023-02-26T14:35:51.941Z,0.80
2023-02-26T14:38:18.962Z,0.90
2023-02-26T14:40:50.093Z,1.00
2023-02-26T14:43:19.081Z,1.10
2023-02-26T14:45:46.212Z,1.10
2023-02-26T14:48:14.190Z,1.20
2023-02-26T14:50:53.405Z,1.10
2023-02-26T14:53:59.160Z,1.00
2023-02-26T14:56:44.269Z,0.90
2023-02-26T14:59:29.772Z,0.90
2023-02-26T15:02:03.040Z,0.90
2023-02-26T15:04:49.059Z,0.80
2023-02-26T15:07:32.749Z,0.80
2023-02-26T15:10:09.829Z,0.80
2023-02-26T15:12:36.912Z,0.90
2023-02-26T15:15:11.075Z,0.90
2023-02-26T15:17:44.153Z,0.90
2023-02-26T15:20:17.371Z,0.90
2023-02-26T15:22:51.655Z,0.90
2023-02-26T15:25:38.657Z,0.90
2023-02-26T15:28:06.640Z,0.80
2023-02-26T15:30:33.766Z,0.80
2023-02-26T15:33:03.023Z,0.70
2023-02-26T15:35:30.696Z,0.70
2023-02-26T15:37:59.254Z,0.60
2023-02-26T15:40:27.125Z,0.50
2023-02-26T15:42:54.522Z,0.50
2023-02-26T15:45:23.624Z,0.40
2023-02-26T15:47:52.053Z,0.40
2023-02-26T15:50:19.241Z,0.40
2023-02-26T15:52:53.766Z,0.50
2023-02-26T15:55:21.797Z,0.40
2023-02-26T15:57:48.922Z,0.50
2023-02-26T16:00:16.787Z,0.50
2023-02-26T16:02:45.542Z,0.50
2023-02-26T16:05:14.680Z,0.50
2023-02-26T16:07:41.834Z,0.40
2023-02-26T16:10:15.238Z,0.40
2023-02-26T16:12:43.659Z,0.40
2023-02-26T16:15:16.092Z,0.50
2023-02-26T16:17:43.705Z,0.50
2023-02-26T16:20:20.760Z,0.50
2023-02-26T16:22:51.388Z,0.60
2023-02-26T16:25:35.656Z,0.50
2023-02-26T16:28:03.691Z,0.50
2023-02-26T16:30:32.336Z,0.50
2023-02-26T16:32:59.449Z,0.50
2023-02-26T16:35:28.781Z,0.60
2023-02-26T16:37:56.101Z,0.60
2023-02-26T16:40:27.399Z,0.50
2023-02-26T16:43:01.942Z,0.40
2023-02-26T16:45:30.049Z,0.40
2023-02-26T16:47:57.199Z,0.30
2023-02-26T16:50:25.356Z,0.30
2023-02-26T16:52:57.318Z,0.20
2023-02-26T16:55:25.526Z,0.10
2023-02-26T16:57:52.595Z,0.10
2023-02-26T17:00:31.714Z,0.00
2023-02-26T17:03:00.150Z,0.00
2023-02-26T17:05:28.773Z,0.00
2023-02-26T17:07:58.376Z,0.00
2023-02-26T17:10:33.385Z,0.00
2023-02-26T17:13:06.600Z,0.00
2023-02-26T17:15:37.109Z,-0.10
2023-02-26T17:18:04.285Z,0.00
2023-02-26T17:20:31.412Z,0.00
2023-02-26T17:22:58.913Z,0.00
2023-02-26T17:25:25.979Z,-0.10
2023-02-26T17:27:53.421Z,-0.10
2023-02-26T17:30:22.272Z,0.00
2023-02-26T17:32:49.592Z,0.00
2023-02-26T17:35:17.532Z,-0.10
2023-02-26T17:37:47.097Z,0.00
2023-02-26T17:40:19.509Z,0.00
2023-02-26T17:42:46.685Z,0.00
2023-02-26T17:45:14.385Z,-0.10
2023-02-26T17:47:41.612Z,-0.20
2023-02-26T17:50:23.932Z,-0.30
2023-02-26T17:52:51.035Z,-0.40
2023-02-26T17:55:18.094Z,-0.50
2023-02-26T17:57:46.560Z,-0.60
2023-02-26T18:00:15.010Z,-0.70
2023-02-26T18:02:45.712Z,-0.70
2023-02-26T18:05:12.897Z,-0.70
2023-02-26T18:07:40.095Z,-0.80
2023-02-26T18:10:07.457Z,-0.70
2023-02-26T18:12:34.560Z,-0.70
2023-02-26T18:15:01.638Z,-0.70
2023-02-26T18:17:30.958Z,-0.70
2023-02-26T18:19:58.197Z,-0.80
2023-02-26T18:22:26.492Z,-0.80
2023-02-26T18:24:54.254Z,-0.80
2023-02-26T18:27:22.286Z,-0.80
2023-02-26T18:29:49.618Z,-0.80
2023-02-26T18:32:17.746Z,-0.70
2023-02-26T18:34:44.949Z,-0.70
2023-02-26T18:37:16.017Z,-0.70
2023-02-26T18:39:43.112Z,-0.70
2023-02-26T18:42:17.692Z,-0.70
2023-02-26T18:44:45.725Z,-0.70
2023-02-26T18:47:13.139Z,-0.70
2023-02-26T18:49:40.184Z,-0.60
2023-02-26T18:52:08.304Z,-0.60
2023-02-26T18:54:36.842Z,-0.70
2023-02-26T18:57:04.587Z,-0.60
2023-02-26T18:59:31.645Z,-0.70
2023-02-26T19:01:58.951Z,-0.70
2023-02-26T19:04:26.250Z,-0.70
2023-02-26T19:06:53.280Z,-0.70
2023-02-26T19:09:21.177Z,-0.70
2023-02-26T19:11:48.232Z,-0.70
2023-02-26T19:14:15.398Z,-0.70
2023-02-26T19:16:43.716Z,-0.70
2023-02-26T19:19:12.573Z,-0.70
2023-02-26T19:21:40.211Z,-0.70
2023-02-26T19:24:08.282Z,-0.70
2023-02-26T19:26:35.370Z,-0.70
2023-02-26T19:29:04.336Z,-0.70
2023-02-26T19:31:32.089Z,-0.70
2023-02-26T19:34:04.125Z,-0.70
2023-02-26T19:36:33.478Z,-0.70
2023-02-26T19:39:01.554Z,-0.70
2023-02-26T19:41:28.950Z,-0.70
2023-02-26T19:43:56.269Z,-0.70
2023-02-26T19:46:23.500Z,-0.80
2023-02-26T19:48:50.624Z,-0.80
2023-02-26T19:51:18.642Z,-0.80
2023-02-26T19:53:45.757Z,-0.80
2023-02-26T19:56:13.018Z,-0.90
2023-02-26T19:58:40.078Z,-0.90
2023-02-26T20:01:07.346Z,-0.90
2023-02-26T20:03:34.406Z,-0.90
2023-02-26T20:06:01.813Z,-0.90
2023-02-26T20:08:29.474Z,-0.90
2023-02-26T20:10:57.076Z,-0.90
2023-02-26T20:13:24.461Z,-1.00
2023-02-26T20:15:53.548Z,-1.00
2023-02-26T20:18:20.804Z,-1.00
2023-02-26T20:20:47.856Z,-1.00
2023-02-26T20:23:14.899Z,-1.00
2023-02-26T20:25:42.863Z,-1.00
2023-02-26T20:28:09.949Z,-1.00
2023-02-26T20:30:37.161Z,-0.90
2023-02-26T20:33:04.277Z,-0.90
2023-02-26T20:35:31.535Z,-0.90
2023-02-26T20:37:59.278Z,-0.90
2023-02-26T20:40:26.293Z,-0.90
2023-02-26T20:42:53.377Z,-0.90
2023-02-26T20:45:20.494Z,-0.90
2023-02-26T20:47:48.556Z,-0.90
2023-02-26T20:50:15.664Z,-0.90
2023-02-26T20:52:42.710Z,-1.00
2023-02-26T20:55:09.889Z,-1.00
2023-02-26T20:57:37.045Z,-1.00
2023-02-26T21:00:10.255Z,-1.00
2023-02-26T21:02:37.760Z,-1.00
2023-02-26T21:05:05.103Z,-1.00
2023-02-26T21:07:32.252Z,-1.00
2023-02-26T21:09:59.290Z,-1.10
2023-02-26T21:12:26.478Z,-1.10
2023-02-26T21:14:55.635Z,-1.10
2023-02-26T21:17:23.145Z,-1.10
2023-02-26T21:19:50.395Z,-1.10
2023-02-26T21:22:17.511Z,-1.10
2023-02-26T21:24:44.622Z,-1.10
2023-02-26T21:27:11.734Z,-1.10
2023-02-26T21:29:38.786Z,-1.10
2023-02-26T21:32:06.097Z,-1.20
2023-02-26T21:34:34.306Z,-1.20
2023-02-26T21:37:03.411Z,-1.10
2023-02-26T21:39:31.056Z,-1.20
2023-02-26T21:42:00.119Z,-1.20
2023-02-26T21:44:27.288Z,-1.20
2023-02-26T21:46:54.348Z,-1.20
2023-02-26T21:49:25.023Z,-1.20
2023-02-26T21:51:52.110Z,-1.20
2023-02-26T21:54:19.240Z,-1.20
2023-02-26T21:56:46.332Z,-1.20
2023-02-26T21:59:13.419Z,-1.20
2023-02-26T22:01:40.732Z,-1.20
2023-02-26T22:04:08.821Z,-1.20
2023-02-26T22:06:35.905Z,-1.20
2023-02-26T22:09:05.030Z,-1.20
2023-02-26T22:11:32.125Z,-1.20
2023-02-26T22:14:00.219Z,-1.20
2023-02-26T22:16:27.323Z,-1.20
2023-02-26T22:18:54.479Z,-1.20
2023-02-26T22:21:24.015Z,-1.20
2023-02-26T22:23:51.239Z,-1.20
2023-02-26T22:26:18.349Z,-1.20
2023-02-26T22:28:45.418Z,-1.10
2023-02-26T22:31:12.568Z,-1.10
2023-02-26T22:33:39.682Z,-1.10
2023-02-26T22:36:06.982Z,-1.10
2023-02-26T22:38:34.065Z,-1.10
2023-02-26T22:41:01.205Z,-1.10
2023-02-26T22:43:29.211Z,-1.10
2023-02-26T22:45:56.283Z,-1.10
2023-02-26T22:48:23.316Z,-1.10
2023-02-26T22:50:50.782Z,-1.10
2023-02-26T22:53:17.904Z,-1.10
2023-02-26T22:55:45.964Z,-1.10
2023-02-26T22:58:13.067Z,-1.20
2023-02-26T23:00:41.882Z,-1.20
2023-02-26T23:03:08.973Z,-1.10
2023-02-26T23:05:36.107Z,-1.10
2023-02-26T23:08:03.128Z,-1.20
2023-02-26T23:10:30.166Z,-1.10
2023-02-26T23:13:00.118Z,-1.10
2023-02-26T23:15:28.241Z,-1.20
2023-02-26T23:17:55.472Z,-1.10
2023-02-26T23:20:22.507Z,-1.10
2023-02-26T23:22:49.553Z,-1.10
2023-02-26T23:25:16.653Z,-1.10
2023-02-26T23:27:43.877Z,-1.10
2023-02-26T23:30:11.269Z,-1.10
2023-02-26T23:32:38.387Z,-1.10
2023-02-26T23:35:05.687Z,-1.10
2023-02-26T23:37:32.769Z,-1.10
2023-02-26T23:40:00.008Z,-1.10
2023-02-26T23:42:27.023Z,-1.20
2023-02-26T23:44:55.162Z,-1.20
2023-02-26T23:47:22.287Z,-1.20
2023-02-26T23:49:49.369Z,-1.20
2023-02-26T23:52:17.724Z,-1.20
2023-02-26T23:54:44.963Z,-1.30
2023-02-26T23:57:12.001Z,-1.30
2023-02-26T23:59:39.078Z,-1.30
